Time;durP1;ratioP1;P1;durP2;ratioP2;P2;SDS_P1;SDS_P2;PMS_P1;PMS_P2;Temp;Humidity;BMP_temperature;BMP_pressure;BME280_temperature;BME280_humidity;BME280_pressure;Samples;Min_cycle;Max_cycle;Signal;HPM_P1;HPM_P2
2023/05/11 04:45:18;;;;;;;;;5.00;4.75;;;;;;;;5307248;22;32797;-71
2023/05/11 04:47:44;;;;;;;;;5.75;2.50;;;;;;;;6252334;22;31014;-71
2023/05/11 04:50:09;;;;;;;;;3.00;3.00;;;;;;;;6253176;22;31374;-78
2023/05/11 04:52:34;;;;;;;;;2.50;2.50;;;;;;;;6252515;22;31723;-71
2023/05/11 04:54:59;;;;;;;;;5.50;3.00;;;;;;;;6251916;22;31107;-72
2023/05/11 04:57:25;;;;;;;;;2.75;2.75;;;;;;;;6251703;22;31422;-72
2023/05/11 04:59:50;;;;;;;;;3.00;3.00;;;;;;;;6252008;22;31341;-72
2023/05/11 05:02:15;;;;;;;;;5.25;4.00;;;;;;;;6251749;22;31769;-71
2023/05/11 05:04:40;;;;;;;;;3.50;2.00;;;;;;;;6251591;22;30927;-71
2023/05/11 05:07:06;;;;;;;;;2.50;2.50;;;;;;;;6252562;22;31205;-71
2023/05/11 05:09:31;;;;;;;;;3.50;3.00;;;;;;;;6254405;22;31379;-71
2023/05/11 05:11:56;;;;;;;;;4.75;4.00;;;;;;;;6225458;22;33964;-71
2023/05/11 05:14:21;;;;;;;;;3.00;2.00;;;;;;;;6252334;22;31050;-71
2023/05/11 05:16:46;;;;;;;;;2.50;2.50;;;;;;;;6253970;22;31521;-71
2023/05/11 05:19:12;;;;;;;;;2.50;2.50;;;;;;;;6254374;22;31006;-73
2023/05/11 05:21:37;;;;;;;;;5.00;5.00;;;;;;;;6227066;22;31265;-73
2023/05/11 05:24:03;;;;;;;;;5.50;3.00;;;;;;;;6253997;22;31286;-76
2023/05/11 05:26:28;;;;;;;;;4.75;3.75;;;;;;;;6226151;22;31027;-72
2023/05/11 05:28:53;;;;;;;;;4.00;2.00;;;;;;;;6226843;22;31425;-68
2023/05/11 05:31:19;;;;;;;;;5.25;4.00;;;;;;;;6254122;22;31715;-71
2023/05/11 05:33:44;;;;;;;;;6.50;5.00;;;;;;;;6201377;22;31405;-70
2023/05/11 05:36:09;;;;;;;;;2.50;2.50;;;;;;;;6253247;22;31302;-72
2023/05/11 05:38:34;;;;;;;;;5.75;5.75;;;;;;;;6251664;22;31635;-69
2023/05/11 05:41:01;;;;;;;;;5.50;4.00;;;;;;;;6226568;22;31263;-69
2023/05/11 05:43:26;;;;;;;;;3.75;3.75;;;;;;;;6254765;22;31317;-74
2023/05/11 05:45:51;;;;;;;;;2.00;2.00;;;;;;;;6254599;22;31188;-70
2023/05/11 05:48:16;;;;;;;;;4.00;3.00;;;;;;;;6255213;22;31045;-75
2023/05/11 05:50:41;;;;;;;;;4.75;3.00;;;;;;;;6255461;22;31237;-73
2023/05/11 05:53:07;;;;;;;;;5.50;3.00;;;;;;;;6255008;22;31276;-73
2023/05/11 05:55:32;;;;;;;;;5.50;4.25;;;;;;;;6255850;22;31121;-71
2023/05/11 05:57:57;;;;;;;;;5.75;2.75;;;;;;;;6255734;22;31275;-72
2023/05/11 06:00:22;;;;;;;;;4.00;4.00;;;;;;;;6256065;22;31884;-71
2023/05/11 06:02:47;;;;;;;;;2.00;2.00;;;;;;;;6248347;22;31092;-71
2023/05/11 06:05:13;;;;;;;;;3.50;3.25;;;;;;;;6249617;22;31054;-72
2023/05/11 06:07:38;;;;;;;;;4.00;3.50;;;;;;;;6248319;22;31396;-71
2023/05/11 06:10:03;;;;;;;;;3.50;3.25;;;;;;;;6253609;22;31844;-72
2023/05/11 06:12:28;;;;;;;;;3.00;3.00;;;;;;;;6253952;22;31081;-72
2023/05/11 06:14:54;;;;;;;;;3.00;2.75;;;;;;;;6254989;22;31055;-72
2023/05/11 06:17:19;;;;;;;;;5.00;5.00;;;;;;;;6254532;22;31341;-73
2023/05/11 06:19:45;;;;;;;;;5.00;5.00;;;;;;;;6255867;22;31370;-73
2023/05/11 06:22:10;;;;;;;;;5.25;4.75;;;;;;;;6255310;22;31196;-73
2023/05/11 06:24:35;;;;;;;;;6.50;4.00;;;;;;;;6255245;22;31393;-74
2023/05/11 06:27:00;;;;;;;;;8.00;3.75;;;;;;;;6255181;22;31472;-81
2023/05/11 06:29:25;;;;;;;;;6.00;5.25;;;;;;;;6255662;22;31267;-77
2023/05/11 06:31:51;;;;;;;;;5.25;4.75;;;;;;;;6225387;22;31553;-78
2023/05/11 06:34:18;;;;;;;;;3.00;3.00;;;;;;;;6227841;22;31206;-75
2023/05/11 06:36:43;;;;;;;;;6.50;5.75;;;;;;;;6251743;22;30999;-76
2023/05/11 06:39:08;;;;;;;;;5.75;5.75;;;;;;;;6252371;22;31120;-76
2023/05/11 06:41:33;;;;;;;;;7.25;5.00;;;;;;;;6252996;22;31331;-71
2023/05/11 06:43:59;;;;;;;;;4.50;3.75;;;;;;;;6286105;22;31235;-73
2023/05/11 06:46:25;;;;;;;;;6.00;6.00;;;;;;;;6286294;22;31117;-72
2023/05/11 06:48:50;;;;;;;;;8.00;7.75;;;;;;;;6285068;22;31442;-73
2023/05/11 06:51:15;;;;;;;;;4.25;4.25;;;;;;;;6286641;22;31624;-73
2023/05/11 06:53:40;;;;;;;;;4.75;4.50;;;;;;;;6286161;22;31207;-74
2023/05/11 06:56:06;;;;;;;;;7.75;7.75;;;;;;;;6258684;22;31030;-74
2023/05/11 06:58:31;;;;;;;;;2.00;2.00;;;;;;;;6285619;22;31047;-74
2023/05/11 07:00:56;;;;;;;;;4.00;4.00;;;;;;;;6257946;22;31064;-75
2023/05/11 07:03:22;;;;;;;;;5.00;5.00;;;;;;;;6286656;22;31005;-74
2023/05/11 07:05:47;;;;;;;;;7.50;4.25;;;;;;;;6286225;22;31024;-72
2023/05/11 07:08:12;;;;;;;;;6.75;5.00;;;;;;;;6286227;22;31117;-73
2023/05/11 07:10:37;;;;;;;;;6.00;5.00;;;;;;;;6285990;22;30979;-74
2023/05/11 07:13:02;;;;;;;;;7.25;5.00;;;;;;;;6285409;22;31485;-74
2023/05/11 07:15:28;;;;;;;;;5.50;5.50;;;;;;;;6286614;22;31497;-73
2023/05/11 07:17:53;;;;;;;;;4.00;4.00;;;;;;;;6285871;22;31946;-72
2023/05/11 07:20:18;;;;;;;;;6.75;5.75;;;;;;;;6286170;22;31255;-78
2023/05/11 07:22:43;;;;;;;;;4.50;4.00;;;;;;;;6286123;22;31593;-72
2023/05/11 07:25:08;;;;;;;;;6.00;5.00;;;;;;;;6285766;22;31426;-69
2023/05/11 07:27:34;;;;;;;;;3.00;2.00;;;;;;;;6285743;22;32051;-71
2023/05/11 07:29:59;;;;;;;;;8.00;8.00;;;;;;;;6285937;22;31380;-72
2023/05/11 07:32:24;;;;;;;;;6.50;6.00;;;;;;;;6285924;22;31239;-71
2023/05/11 07:34:49;;;;;;;;;6.00;6.00;;;;;;;;6284616;22;30928;-71
2023/05/11 07:37:14;;;;;;;;;5.75;5.75;;;;;;;;6286120;22;31080;-71
2023/05/11 07:39:40;;;;;;;;;7.25;6.50;;;;;;;;6285603;22;31014;-71
2023/05/11 07:42:05;;;;;;;;;5.75;5.00;;;;;;;;6275304;22;31274;-71
2023/05/11 07:44:31;;;;;;;;;6.75;6.50;;;;;;;;6254479;22;30981;-71
2023/05/11 07:46:57;;;;;;;;;6.00;5.25;;;;;;;;6254243;22;31824;-72
2023/05/11 07:49:22;;;;;;;;;7.75;7.50;;;;;;;;6254575;22;31295;-71
2023/05/11 07:51:48;;;;;;;;;6.50;6.50;;;;;;;;6226347;22;31126;-72
2023/05/11 07:54:13;;;;;;;;;6.00;6.00;;;;;;;;6252937;22;31026;-70
2023/05/11 07:56:38;;;;;;;;;10.50;7.25;;;;;;;;6253509;22;32160;-73
2023/05/11 07:59:03;;;;;;;;;6.00;5.00;;;;;;;;6254352;22;31244;-71
2023/05/11 08:01:29;;;;;;;;;6.75;6.75;;;;;;;;6255371;22;31395;-71
2023/05/11 08:03:54;;;;;;;;;9.75;6.50;;;;;;;;6255022;22;31078;-71
2023/05/11 08:06:19;;;;;;;;;6.50;6.50;;;;;;;;6254992;22;31909;-70
2023/05/11 08:08:44;;;;;;;;;8.25;8.25;;;;;;;;6254576;22;31129;-71
2023/05/11 08:11:09;;;;;;;;;9.75;9.75;;;;;;;;6227769;22;31330;-70
2023/05/11 08:13:34;;;;;;;;;11.00;6.25;;;;;;;;6254237;22;31025;-70
2023/05/11 08:16:00;;;;;;;;;7.75;6.75;;;;;;;;6255166;22;32990;-70
2023/05/11 08:18:25;;;;;;;;;7.00;5.50;;;;;;;;6255036;22;31114;-70
2023/05/11 08:20:51;;;;;;;;;7.25;6.75;;;;;;;;6227055;22;31009;-70
2023/05/11 08:23:17;;;;;;;;;7.25;7.25;;;;;;;;6254279;22;30979;-71
2023/05/11 08:25:50;;;;;;;;;6.75;5.75;;;;;;;;6255045;22;31102;-69
2023/05/11 08:28:15;;;;;;;;;8.75;7.25;;;;;;;;6255065;22;31240;-70
2023/05/11 08:30:41;;;;;;;;;8.00;7.50;;;;;;;;6254742;22;31015;-70
2023/05/11 08:33:07;;;;;;;;;8.75;7.75;;;;;;;;6255336;22;31037;-71
2023/05/11 08:35:32;;;;;;;;;6.50;6.50;;;;;;;;6254875;22;31093;-70
2023/05/11 08:37:57;;;;;;;;;6.75;6.75;;;;;;;;6254806;22;31152;-70
2023/05/11 08:40:25;;;;;;;;;11.00;9.50;;;;;;;;6255124;22;31186;-71
2023/05/11 08:42:53;;;;;;;;;9.00;7.00;;;;;;;;6253777;22;31304;-71
2023/05/11 08:45:19;;;;;;;;;7.00;7.00;;;;;;;;6254603;22;31727;-70
2023/05/11 08:47:45;;;;;;;;;9.25;8.00;;;;;;;;6254118;22;31126;-71
2023/05/11 08:50:10;;;;;;;;;9.50;8.75;;;;;;;;6254911;22;31202;-70
2023/05/11 08:52:36;;;;;;;;;7.50;7.50;;;;;;;;6254906;22;30978;-70
2023/05/11 08:55:02;;;;;;;;;11.50;9.00;;;;;;;;6254849;22;30982;-70
2023/05/11 08:57:29;;;;;;;;;11.25;8.50;;;;;;;;6254804;22;31430;-70
2023/05/11 08:59:55;;;;;;;;;9.00;6.50;;;;;;;;6254587;22;31365;-70
2023/05/11 09:02:20;;;;;;;;;10.25;10.25;;;;;;;;6254873;22;31235;-70
2023/05/11 09:04:45;;;;;;;;;7.50;7.50;;;;;;;;6227030;22;33975;-70
2023/05/11 09:07:13;;;;;;;;;10.00;8.50;;;;;;;;6254482;22;30974;-70
2023/05/11 09:09:40;;;;;;;;;7.50;6.75;;;;;;;;6254681;22;30959;-70
2023/05/11 09:12:06;;;;;;;;;8.00;7.00;;;;;;;;6253600;22;31264;-70
2023/05/11 09:14:31;;;;;;;;;7.75;6.75;;;;;;;;6254383;22;32288;-70
2023/05/11 09:16:57;;;;;;;;;9.00;8.00;;;;;;;;6226977;22;31106;-70
2023/05/11 09:19:22;;;;;;;;;10.00;8.00;;;;;;;;6254685;22;31225;-70
2023/05/11 09:21:47;;;;;;;;;9.25;8.50;;;;;;;;6227144;22;31764;-70
2023/05/11 09:24:13;;;;;;;;;9.50;9.50;;;;;;;;6254737;22;32054;-70
2023/05/11 09:26:38;;;;;;;;;8.25;7.25;;;;;;;;6226997;22;31180;-70
2023/05/11 09:29:03;;;;;;;;;6.75;6.75;;;;;;;;6226771;22;31456;-70
2023/05/11 09:31:36;;;;;;;;;7.50;7.50;;;;;;;;6254780;22;31022;-70
2023/05/11 09:34:11;;;;;;;;;7.75;5.00;;;;;;;;6254640;22;31490;-70
2023/05/11 09:36:36;;;;;;;;;9.50;8.50;;;;;;;;6254185;22;31235;-70
2023/05/11 09:39:02;;;;;;;;;10.25;9.00;;;;;;;;6226821;22;31059;-69
2023/05/11 09:41:28;;;;;;;;;11.00;9.00;;;;;;;;6254507;22;31331;-70
2023/05/11 09:44:02;;;;;;;;;11.75;8.75;;;;;;;;6253650;22;31307;-70
2023/05/11 09:46:28;;;;;;;;;7.00;7.00;;;;;;;;6254282;22;31205;-70
2023/05/11 09:48:59;;;;;;;;;7.75;6.75;;;;;;;;6254108;22;31062;-70
2023/05/11 09:51:30;;;;;;;;;6.00;6.00;;;;;;;;6254242;22;31030;-69
2023/05/11 09:53:55;;;;;;;;;5.00;5.00;;;;;;;;6254278;22;31680;-69
2023/05/11 09:56:20;;;;;;;;;4.75;4.75;;;;;;;;6254327;22;31276;-70
2023/05/11 09:58:50;;;;;;;;;5.50;5.25;;;;;;;;6254383;22;30922;-70
2023/05/11 10:01:16;;;;;;;;;8.00;6.00;;;;;;;;6254675;22;31040;-69
2023/05/11 10:03:46;;;;;;;;;5.25;5.25;;;;;;;;6254139;22;31101;-69
2023/05/11 10:06:11;;;;;;;;;7.25;6.25;;;;;;;;6226647;22;31465;-69
2023/05/11 10:08:36;;;;;;;;;8.50;5.25;;;;;;;;6254078;22;31299;-69
2023/05/11 10:11:03;;;;;;;;;6.75;6.75;;;;;;;;6254729;22;31394;-70
2023/05/11 10:13:29;;;;;;;;;8.50;8.50;;;;;;;;6254244;22;31081;-69
2023/05/11 10:15:56;;;;;;;;;6.25;6.25;;;;;;;;6226447;22;31129;-70
2023/05/11 10:18:22;;;;;;;;;6.50;4.75;;;;;;;;6254081;22;31161;-69
2023/05/11 10:20:47;;;;;;;;;4.00;4.00;;;;;;;;6254111;22;31301;-69
2023/05/11 10:23:13;;;;;;;;;4.75;4.25;;;;;;;;6254439;22;31520;-70
2023/05/11 10:25:39;;;;;;;;;5.25;5.25;;;;;;;;6255358;22;31371;-69
2023/05/11 10:28:04;;;;;;;;;4.00;3.00;;;;;;;;6255809;22;31446;-70
2023/05/11 10:30:30;;;;;;;;;3.50;3.50;;;;;;;;6255960;22;31037;-70
2023/05/11 10:32:56;;;;;;;;;3.50;3.50;;;;;;;;6255509;22;31420;-69
2023/05/11 10:35:21;;;;;;;;;6.50;6.50;;;;;;;;6255905;22;31130;-69
2023/05/11 10:37:46;;;;;;;;;4.00;4.00;;;;;;;;6228237;22;31017;-70
2023/05/11 10:40:12;;;;;;;;;3.50;3.50;;;;;;;;6256098;22;31436;-75
2023/05/11 10:42:46;;;;;;;;;1.75;1.75;;;;;;;;6255173;22;30979;-74
2023/05/11 10:45:18;;;;;;;;;6.50;4.50;;;;;;;;6255996;22;31131;-73
2023/05/11 10:48:02;;;;;;;;;9.00;5.50;;;;;;;;6227458;22;31444;-76
2023/05/11 10:50:40;;;;;;;;;5.75;5.75;;;;;;;;6255621;22;31895;-74
2023/05/11 10:53:14;;;;;;;;;4.75;4.25;;;;;;;;6255047;22;31904;-74
2023/05/11 10:55:58;;;;;;;;;10.25;7.00;;;;;;;;6255593;22;31399;-76
2023/05/11 10:58:46;;;;;;;;;5.25;4.00;;;;;;;;6255657;22;31054;-78
2023/05/11 11:01:18;;;;;;;;;6.75;4.25;;;;;;;;6255761;22;31015;-75
2023/05/11 11:03:56;;;;;;;;;5.25;5.25;;;;;;;;6255089;22;31164;-75
2023/05/11 11:06:23;;;;;;;;;3.75;3.75;;;;;;;;6255044;22;31072;-74
2023/05/11 11:08:58;;;;;;;;;5.00;4.00;;;;;;;;6255480;22;31218;-73
2023/05/11 11:11:28;;;;;;;;;4.50;4.00;;;;;;;;6227629;22;31392;-70
2023/05/11 11:13:57;;;;;;;;;3.00;3.00;;;;;;;;6254630;22;32110;-70
2023/05/11 11:16:24;;;;;;;;;3.75;3.75;;;;;;;;6255038;22;31141;-70
2023/05/11 11:18:49;;;;;;;;;3.50;3.50;;;;;;;;6255005;22;31130;-70
2023/05/11 11:21:34;;;;;;;;;3.50;3.50;;;;;;;;6254856;22;31007;-70
2023/05/11 11:24:01;;;;;;;;;5.75;5.50;;;;;;;;6255275;22;31357;-69
2023/05/11 11:26:45;;;;;;;;;4.00;4.00;;;;;;;;6254247;22;31157;-69
2023/05/11 11:29:11;;;;;;;;;5.25;5.25;;;;;;;;6254793;22;31200;-68
2023/05/11 11:31:36;;;;;;;;;5.25;5.25;;;;;;;;6254897;22;30961;-68
2023/05/11 11:34:20;;;;;;;;;6.75;4.25;;;;;;;;6255610;22;32462;-68
2023/05/11 11:36:54;;;;;;;;;5.00;4.00;;;;;;;;6254536;22;31003;-68
2023/05/11 11:39:25;;;;;;;;;3.75;3.75;;;;;;;;6254963;22;31098;-68
2023/05/11 11:42:03;;;;;;;;;4.25;3.25;;;;;;;;6252918;22;31025;-68
2023/05/11 11:44:29;;;;;;;;;5.25;4.25;;;;;;;;6254560;22;31733;-68
2023/05/11 11:47:09;;;;;;;;;6.75;4.75;;;;;;;;6254099;22;31056;-68
2023/05/11 11:49:35;;;;;;;;;4.75;4.00;;;;;;;;6255512;22;31019;-68
2023/05/11 11:52:02;;;;;;;;;4.25;4.25;;;;;;;;6255220;22;30942;-69
2023/05/11 11:54:40;;;;;;;;;4.00;4.00;;;;;;;;6255423;22;31708;-67
2023/05/11 11:57:24;;;;;;;;;6.25;6.25;;;;;;;;6255105;22;31081;-68
2023/05/11 11:59:50;;;;;;;;;4.50;4.50;;;;;;;;6254075;22;31117;-68
2023/05/11 12:02:15;;;;;;;;;3.50;3.50;;;;;;;;6254412;22;31069;-69
2023/05/11 12:04:49;;;;;;;;;4.50;3.25;;;;;;;;6254125;22;31130;-70
2023/05/11 12:07:14;;;;;;;;;4.75;3.25;;;;;;;;6254823;22;31272;-70
2023/05/11 12:09:40;;;;;;;;;5.00;3.25;;;;;;;;6254810;22;31177;-70
2023/05/11 12:12:05;;;;;;;;;4.00;3.00;;;;;;;;6253995;22;30998;-69
2023/05/11 12:14:31;;;;;;;;;4.00;4.00;;;;;;;;6227176;22;32743;-68
2023/05/11 12:17:03;;;;;;;;;5.00;3.00;;;;;;;;6254876;22;31140;-70
2023/05/11 12:19:29;;;;;;;;;4.00;3.00;;;;;;;;6254788;22;31410;-70
2023/05/11 12:21:54;;;;;;;;;4.00;4.00;;;;;;;;6255320;22;31062;-70
2023/05/11 12:24:20;;;;;;;;;5.00;4.00;;;;;;;;6254149;22;32427;-68
2023/05/11 12:26:45;;;;;;;;;3.00;3.00;;;;;;;;6253981;22;31279;-68
2023/05/11 12:29:13;;;;;;;;;3.25;3.25;;;;;;;;6254433;22;31208;-68
2023/05/11 12:31:39;;;;;;;;;5.00;3.50;;;;;;;;6253789;22;31093;-68
2023/05/11 12:34:05;;;;;;;;;5.00;4.00;;;;;;;;6254131;22;31309;-69
2023/05/11 12:36:30;;;;;;;;;4.00;4.00;;;;;;;;6254878;22;31060;-69
2023/05/11 12:38:56;;;;;;;;;4.50;4.25;;;;;;;;6255238;22;31002;-69
2023/05/11 12:41:21;;;;;;;;;8.75;5.00;;;;;;;;6254731;22;31062;-69
2023/05/11 12:43:50;;;;;;;;;3.50;3.50;;;;;;;;6256468;22;32740;-68
2023/05/11 12:46:16;;;;;;;;;3.75;3.50;;;;;;;;6285077;22;31148;-69
2023/05/11 12:48:42;;;;;;;;;4.50;3.50;;;;;;;;6285544;22;31166;-68
2023/05/11 12:51:07;;;;;;;;;7.00;3.00;;;;;;;;6283770;22;30979;-67
2023/05/11 12:53:35;;;;;;;;;4.50;4.50;;;;;;;;6285465;22;31751;-67
2023/05/11 12:56:01;;;;;;;;;4.00;4.00;;;;;;;;6284748;22;31026;-67
2023/05/11 12:58:34;;;;;;;;;2.00;2.00;;;;;;;;6285533;22;31014;-67
2023/05/11 13:01:00;;;;;;;;;3.00;3.00;;;;;;;;6285607;22;30951;-68
2023/05/11 13:03:25;;;;;;;;;3.00;3.00;;;;;;;;6285081;22;31778;-68
2023/05/11 13:05:51;;;;;;;;;3.40;2.20;;;;;;;;6255383;22;31332;-68
2023/05/11 13:08:18;;;;;;;;;5.00;4.00;;;;;;;;6285146;22;31107;-68
2023/05/11 13:10:43;;;;;;;;;5.50;4.50;;;;;;;;6285184;22;30955;-68
2023/05/11 13:13:08;;;;;;;;;5.00;3.50;;;;;;;;6284846;22;31457;-67
2023/05/11 13:15:48;;;;;;;;;3.75;3.50;;;;;;;;6285212;22;31099;-67
2023/05/11 13:18:15;;;;;;;;;2.50;2.00;;;;;;;;6286140;22;31077;-68
2023/05/11 13:20:42;;;;;;;;;1.75;1.75;;;;;;;;6285549;22;30943;-68
2023/05/11 13:23:08;;;;;;;;;4.00;4.00;;;;;;;;6257569;22;32763;-68
2023/05/11 13:25:34;;;;;;;;;2.00;2.00;;;;;;;;6284907;22;31453;-68
2023/05/11 13:28:00;;;;;;;;;4.00;3.00;;;;;;;;6285551;22;31333;-68
2023/05/11 13:30:25;;;;;;;;;3.00;3.00;;;;;;;;6285725;22;31296;-68
2023/05/11 13:32:50;;;;;;;;;2.25;2.25;;;;;;;;6284950;22;31903;-68
2023/05/11 13:35:16;;;;;;;;;2.50;2.50;;;;;;;;6285332;22;31243;-68
2023/05/11 13:37:41;;;;;;;;;4.50;2.75;;;;;;;;6285205;22;31912;-69
2023/05/11 13:40:09;;;;;;;;;3.75;3.00;;;;;;;;6286148;22;31038;-68
2023/05/11 13:42:35;;;;;;;;;4.00;4.00;;;;;;;;6269589;22;31096;-68
2023/05/11 13:45:00;;;;;;;;;2.50;2.50;;;;;;;;6254667;22;31305;-68
2023/05/11 13:47:26;;;;;;;;;1.75;1.75;;;;;;;;6254203;22;31061;-68
2023/05/11 13:49:53;;;;;;;;;2.50;2.50;;;;;;;;6253772;22;31040;-68
2023/05/11 13:52:18;;;;;;;;;2.50;2.50;;;;;;;;6254611;22;31497;-68
2023/05/11 13:54:43;;;;;;;;;7.25;5.25;;;;;;;;6254277;22;31140;-68
2023/05/11 13:57:09;;;;;;;;;4.50;2.50;;;;;;;;6254413;22;31058;-68
2023/05/11 13:59:34;;;;;;;;;6.00;4.50;;;;;;;;6255066;22;31050;-69
2023/05/11 14:01:59;;;;;;;;;5.50;4.25;;;;;;;;6254886;22;32486;-68
2023/05/11 14:04:24;;;;;;;;;2.00;2.00;;;;;;;;6255226;22;30944;-68
2023/05/11 14:06:50;;;;;;;;;5.25;4.00;;;;;;;;6255851;22;30939;-68
2023/05/11 14:09:15;;;;;;;;;4.75;3.75;;;;;;;;6255210;22;31287;-69
2023/05/11 14:11:40;;;;;;;;;3.00;3.00;;;;;;;;6254482;22;31277;-69
2023/05/11 14:14:06;;;;;;;;;4.25;4.25;;;;;;;;6256177;22;31132;-70
2023/05/11 14:16:31;;;;;;;;;3.25;3.25;;;;;;;;6228126;22;31081;-74
2023/05/11 14:18:56;;;;;;;;;3.50;3.00;;;;;;;;6255830;22;31482;-69
2023/05/11 14:21:21;;;;;;;;;3.00;3.00;;;;;;;;6255702;22;31051;-68
2023/05/11 14:23:46;;;;;;;;;4.00;4.00;;;;;;;;6255007;22;31266;-68
2023/05/11 14:26:11;;;;;;;;;6.00;5.75;;;;;;;;6254437;22;31158;-68
2023/05/11 14:28:38;;;;;;;;;4.25;4.25;;;;;;;;6227725;22;31389;-67
2023/05/11 14:31:03;;;;;;;;;2.75;2.75;;;;;;;;6254724;22;31573;-68
2023/05/11 14:33:28;;;;;;;;;3.50;3.00;;;;;;;;6227774;22;31154;-68
2023/05/11 14:35:53;;;;;;;;;3.75;2.25;;;;;;;;6255832;22;31226;-67
2023/05/11 14:38:18;;;;;;;;;6.00;4.75;;;;;;;;6254225;22;31018;-68
2023/05/11 14:40:44;;;;;;;;;5.50;4.00;;;;;;;;6254107;22;31845;-68
2023/05/11 14:43:09;;;;;;;;;3.25;3.25;;;;;;;;6254665;22;31047;-68
2023/05/11 14:45:34;;;;;;;;;2.00;2.00;;;;;;;;6254699;22;31090;-68
2023/05/11 14:47:59;;;;;;;;;2.00;2.00;;;;;;;;6254826;22;31098;-68
2023/05/11 14:50:25;;;;;;;;;2.25;2.25;;;;;;;;6254226;22;31572;-68
2023/05/11 14:52:50;;;;;;;;;4.50;3.50;;;;;;;;6255225;22;31432;-68
2023/05/11 14:55:15;;;;;;;;;2.00;2.00;;;;;;;;6254590;22;31144;-68
2023/05/11 14:57:41;;;;;;;;;6.00;5.00;;;;;;;;6254611;22;31020;-68
2023/05/11 15:00:07;;;;;;;;;2.75;2.75;;;;;;;;6254743;22;31982;-68
2023/05/11 15:02:32;;;;;;;;;2.00;2.00;;;;;;;;6254550;22;31029;-67
2023/05/11 15:04:57;;;;;;;;;5.25;3.00;;;;;;;;6255553;22;31048;-68
2023/05/11 15:07:23;;;;;;;;;3.25;3.25;;;;;;;;6256133;22;31304;-75
2023/05/11 15:09:49;;;;;;;;;3.00;2.00;;;;;;;;6254035;22;32319;-68
2023/05/11 15:12:14;;;;;;;;;3.00;2.00;;;;;;;;6255063;22;30956;-68
2023/05/11 15:14:39;;;;;;;;;3.00;3.00;;;;;;;;6254910;22;31176;-68
2023/05/11 15:17:05;;;;;;;;;4.00;4.00;;;;;;;;6255663;22;31003;-68
2023/05/11 15:19:30;;;;;;;;;4.00;4.00;;;;;;;;6255673;22;31170;-68
2023/05/11 15:21:55;;;;;;;;;2.00;2.00;;;;;;;;6254688;22;31713;-68
2023/05/11 15:24:20;;;;;;;;;3.00;2.00;;;;;;;;6255897;22;31024;-68
2023/05/11 15:26:45;;;;;;;;;1.75;1.75;;;;;;;;6255741;22;31176;-68
2023/05/11 15:29:10;;;;;;;;;2.00;2.00;;;;;;;;6255293;22;31732;-67
2023/05/11 15:31:36;;;;;;;;;4.75;4.00;;;;;;;;6255739;22;31707;-67
2023/05/11 15:34:01;;;;;;;;;3.00;1.00;;;;;;;;6255738;22;31005;-68
2023/05/11 15:36:27;;;;;;;;;3.00;2.00;;;;;;;;6252707;22;31276;-68
2023/05/11 15:38:52;;;;;;;;;1.75;1.75;;;;;;;;6254793;22;31065;-67
2023/05/11 15:41:17;;;;;;;;;2.00;1.75;;;;;;;;6255338;22;31066;-67
2023/05/11 15:43:43;;;;;;;;;2.00;2.00;;;;;;;;6255674;22;31688;-68
2023/05/11 15:46:08;;;;;;;;;3.75;3.00;;;;;;;;6227856;22;31340;-67
2023/05/11 15:48:33;;;;;;;;;3.00;3.00;;;;;;;;6255451;22;31809;-68
2023/05/11 15:50:58;;;;;;;;;4.25;4.25;;;;;;;;6255131;22;31035;-68
2023/05/11 15:53:24;;;;;;;;;3.00;3.00;;;;;;;;6255186;22;31152;-68
2023/05/11 15:55:52;;;;;;;;;2.75;2.75;;;;;;;;6255294;22;31040;-68
2023/05/11 15:58:17;;;;;;;;;4.75;2.75;;;;;;;;6255222;22;31836;-68
2023/05/11 16:00:42;;;;;;;;;2.50;2.25;;;;;;;;6255151;22;31369;-68
2023/05/11 16:03:07;;;;;;;;;3.75;1.75;;;;;;;;6255483;22;30974;-68
2023/05/11 16:05:33;;;;;;;;;4.50;3.50;;;;;;;;6255585;22;31240;-68
2023/05/11 16:07:58;;;;;;;;;3.50;1.50;;;;;;;;6254277;22;31776;-68
2023/05/11 16:10:23;;;;;;;;;3.25;3.00;;;;;;;;6255468;22;31093;-68
2023/05/11 16:12:49;;;;;;;;;3.00;2.00;;;;;;;;6227428;22;31282;-68
2023/05/11 16:15:14;;;;;;;;;2.75;1.75;;;;;;;;6255567;22;31283;-68
2023/05/11 16:17:39;;;;;;;;;3.50;1.25;;;;;;;;6255137;22;32665;-68
2023/05/11 16:20:05;;;;;;;;;2.00;2.00;;;;;;;;6227536;22;31093;-73
2023/05/11 16:22:30;;;;;;;;;3.50;2.50;;;;;;;;6255143;22;30971;-79
2023/05/11 16:24:56;;;;;;;;;5.50;5.00;;;;;;;;6255353;22;31603;-69
2023/05/11 16:27:21;;;;;;;;;4.25;3.00;;;;;;;;6255286;22;31082;-69
2023/05/11 16:29:46;;;;;;;;;1.50;1.50;;;;;;;;6254746;22;31421;-69
2023/05/11 16:32:13;;;;;;;;;2.75;2.75;;;;;;;;6254987;22;31206;-70
2023/05/11 16:34:38;;;;;;;;;4.50;3.00;;;;;;;;6255393;22;31450;-70
2023/05/11 16:37:03;;;;;;;;;2.00;2.00;;;;;;;;6255117;22;31408;-68
2023/05/11 16:39:28;;;;;;;;;6.00;4.00;;;;;;;;6255373;22;31029;-68
2023/05/11 16:41:53;;;;;;;;;3.75;3.00;;;;;;;;6255287;22;31196;-69
2023/05/11 16:44:19;;;;;;;;;5.50;3.00;;;;;;;;6255527;22;31364;-68
2023/05/11 16:46:44;;;;;;;;;5.25;4.75;;;;;;;;6226881;22;32558;-68
2023/05/11 16:49:09;;;;;;;;;2.00;2.00;;;;;;;;6254462;22;31149;-68
2023/05/11 16:51:34;;;;;;;;;5.25;3.75;;;;;;;;6227285;22;31253;-74
2023/05/11 16:53:59;;;;;;;;;2.75;2.75;;;;;;;;6255539;22;31728;-72
2023/05/11 16:56:25;;;;;;;;;4.00;2.50;;;;;;;;6255331;22;31403;-69
2023/05/11 16:58:50;;;;;;;;;4.25;3.00;;;;;;;;6255082;22;31113;-69
2023/05/11 17:01:16;;;;;;;;;4.00;3.50;;;;;;;;6227843;22;31478;-69
2023/05/11 17:03:41;;;;;;;;;5.25;4.00;;;;;;;;6255251;22;31027;-68
2023/05/11 17:06:08;;;;;;;;;4.50;3.00;;;;;;;;6255032;22;31089;-68
2023/05/11 17:08:34;;;;;;;;;7.00;4.25;;;;;;;;6255006;22;31361;-69
2023/05/11 17:10:59;;;;;;;;;2.25;2.00;;;;;;;;6255295;22;30986;-68
2023/05/11 17:13:25;;;;;;;;;3.00;3.00;;;;;;;;6255462;22;31011;-77
2023/05/11 17:15:54;;;;;;;;;4.00;4.00;;;;;;;;6254965;22;31273;-75
2023/05/11 17:18:20;;;;;;;;;3.00;3.00;;;;;;;;6254545;22;31359;-75
2023/05/11 17:20:50;;;;;;;;;2.75;2.75;;;;;;;;6254706;22;31085;-72
2023/05/11 17:23:15;;;;;;;;;4.00;4.00;;;;;;;;6255439;22;30958;-79
2023/05/11 17:25:41;;;;;;;;;2.25;2.25;;;;;;;;6254802;22;31081;-72
2023/05/11 17:28:06;;;;;;;;;6.25;3.00;;;;;;;;6254346;22;31136;-72
2023/05/11 17:30:31;;;;;;;;;4.75;4.75;;;;;;;;6255039;22;31562;-72
2023/05/11 17:32:56;;;;;;;;;4.00;4.00;;;;;;;;6227439;22;31304;-72
2023/05/11 17:35:21;;;;;;;;;3.00;3.00;;;;;;;;6255668;22;32734;-72
2023/05/11 17:37:47;;;;;;;;;4.00;4.00;;;;;;;;6255796;22;31030;-71
2023/05/11 17:40:12;;;;;;;;;4.25;2.50;;;;;;;;6256402;22;31162;-76
2023/05/11 17:42:37;;;;;;;;;4.00;4.00;;;;;;;;6255455;22;31071;-66
2023/05/11 17:45:02;;;;;;;;;6.00;5.00;;;;;;;;6256070;22;32274;-67
2023/05/11 17:47:28;;;;;;;;;3.25;2.50;;;;;;;;6255838;22;31059;-68
2023/05/11 17:49:53;;;;;;;;;2.00;2.00;;;;;;;;6256295;22;31334;-67
2023/05/11 17:52:18;;;;;;;;;5.00;5.00;;;;;;;;6255999;22;31006;-67
2023/05/11 17:54:43;;;;;;;;;3.25;3.25;;;;;;;;6256339;22;31105;-67
2023/05/11 17:57:08;;;;;;;;;3.50;3.50;;;;;;;;6256192;22;31231;-67
2023/05/11 17:59:34;;;;;;;;;3.00;3.00;;;;;;;;6256486;22;31043;-69
2023/05/11 18:02:00;;;;;;;;;2.50;2.50;;;;;;;;6228333;22;31129;-69
2023/05/11 18:04:25;;;;;;;;;4.50;4.50;;;;;;;;6255770;22;31047;-68
2023/05/11 18:06:50;;;;;;;;;3.00;3.00;;;;;;;;6255895;22;31212;-72
2023/05/11 18:09:17;;;;;;;;;2.50;2.50;;;;;;;;6228488;22;31101;-69
2023/05/11 18:11:43;;;;;;;;;4.00;4.00;;;;;;;;6255785;22;31230;-67
2023/05/11 18:14:09;;;;;;;;;7.00;4.00;;;;;;;;6255469;22;32226;-68
2023/05/11 18:16:35;;;;;;;;;2.00;2.00;;;;;;;;6255678;22;31095;-67
2023/05/11 18:19:00;;;;;;;;;4.75;3.75;;;;;;;;6255378;22;31161;-66
2023/05/11 18:21:26;;;;;;;;;4.25;4.25;;;;;;;;6255763;22;31291;-67
2023/05/11 18:23:51;;;;;;;;;6.75;6.75;;;;;;;;6255976;22;31085;-66
2023/05/11 18:26:18;;;;;;;;;4.75;4.75;;;;;;;;6228102;22;31141;-66
2023/05/11 18:28:43;;;;;;;;;4.75;3.00;;;;;;;;6255257;22;31065;-66
2023/05/11 18:31:08;;;;;;;;;5.00;4.00;;;;;;;;6255856;22;30978;-66
2023/05/11 18:33:34;;;;;;;;;6.25;6.25;;;;;;;;6255029;22;32175;-66
2023/05/11 18:36:00;;;;;;;;;4.00;4.00;;;;;;;;6255702;22;31104;-66
2023/05/11 18:38:25;;;;;;;;;4.25;3.25;;;;;;;;6255529;22;31101;-66
2023/05/11 18:40:52;;;;;;;;;3.75;3.75;;;;;;;;6255357;22;31046;-66
2023/05/11 18:43:17;;;;;;;;;3.75;3.75;;;;;;;;6254202;22;32079;-66
2023/05/11 18:45:44;;;;;;;;;9.00;8.00;;;;;;;;6227421;22;31270;-66
2023/05/11 18:48:09;;;;;;;;;3.75;3.25;;;;;;;;6255177;22;31181;-66
2023/05/11 18:50:35;;;;;;;;;4.00;4.00;;;;;;;;6256042;22;30979;-66
2023/05/11 18:53:00;;;;;;;;;6.25;4.00;;;;;;;;6255487;22;31530;-66
2023/05/11 18:55:26;;;;;;;;;3.50;2.50;;;;;;;;6255965;22;31141;-66
2023/05/11 18:57:51;;;;;;;;;3.00;2.00;;;;;;;;6255910;22;31097;-66
2023/05/11 19:00:16;;;;;;;;;3.50;2.00;;;;;;;;6256083;22;31474;-68
2023/05/11 19:02:42;;;;;;;;;2.00;2.00;;;;;;;;6227642;22;32639;-65
2023/05/11 19:05:07;;;;;;;;;3.00;3.00;;;;;;;;6255901;22;31015;-66
2023/05/11 19:07:32;;;;;;;;;3.00;3.00;;;;;;;;6255778;22;31142;-66
2023/05/11 19:09:57;;;;;;;;;3.50;2.50;;;;;;;;6255887;22;31350;-66
2023/05/11 19:12:22;;;;;;;;;3.75;3.25;;;;;;;;6255820;22;31126;-66
2023/05/11 19:14:48;;;;;;;;;4.25;3.75;;;;;;;;6255971;22;31682;-66
2023/05/11 19:17:13;;;;;;;;;4.25;4.00;;;;;;;;6255620;22;31030;-66
2023/05/11 19:19:38;;;;;;;;;5.00;5.00;;;;;;;;6255994;22;31077;-66
2023/05/11 19:22:04;;;;;;;;;4.25;3.00;;;;;;;;6255515;22;33020;-65